sensor_id;sensor_type;location;lat;lon;timestamp;P1;durP1;ratioP1;P2;durP2;ratioP2
10277;SDS011;5184;51.376;7.148;2023-12-14T00:00:26;38.83;;;16.13;;
10277;SDS011;5184;51.376;7.148;2023-12-14T00:02:53;52.23;;;19.90;;
10277;SDS011;5184;51.376;7.148;2023-12-14T00:05:20;57.80;;;17.37;;
10277;SDS011;5184;51.376;7.148;2023-12-14T00:07:47;46.17;;;17.30;;
10277;SDS011;5184;51.376;7.148;2023-12-14T00:10:14;64.80;;;17.43;;
10277;SDS011;5184;51.376;7.148;2023-12-14T00:12:41;54.03;;;17.23;;
10277;SDS011;5184;51.376;7.148;2023-12-14T00:15:08;42.53;;;17.03;;
10277;SDS011;5184;51.376;7.148;2023-12-14T00:17:34;61.50;;;18.20;;
10277;SDS011;5184;51.376;7.148;2023-12-14T00:20:01;38.43;;;17.20;;
10277;SDS011;5184;51.376;7.148;2023-12-14T00:22:28;50.03;;;17.50;;
10277;SDS011;5184;51.376;7.148;2023-12-14T00:24:55;34.23;;;16.70;;
10277;SDS011;5184;51.376;7.148;2023-12-14T00:27:21;35.43;;;16.53;;
10277;SDS011;5184;51.376;7.148;2023-12-14T00:29:48;34.23;;;16.20;;
10277;SDS011;5184;51.376;7.148;2023-12-14T00:32:15;28.17;;;14.53;;
10277;SDS011;5184;51.376;7.148;2023-12-14T00:34:41;33.23;;;16.53;;
10277;SDS011;5184;51.376;7.148;2023-12-14T00:37:08;28.50;;;15.10;;
10277;SDS011;5184;51.376;7.148;2023-12-14T00:39:36;29.13;;;14.83;;
10277;SDS011;5184;51.376;7.148;2023-12-14T00:42:02;28.07;;;15.53;;
10277;SDS011;5184;51.376;7.148;2023-12-14T00:44:29;29.00;;;15.80;;
10277;SDS011;5184;51.376;7.148;2023-12-14T00:46:56;31.30;;;16.27;;
10277;SDS011;5184;51.376;7.148;2023-12-14T00:49:22;30.37;;;14.80;;
10277;SDS011;5184;51.376;7.148;2023-12-14T00:51:49;29.67;;;14.97;;
10277;SDS011;5184;51.376;7.148;2023-12-14T00:54:16;29.43;;;15.43;;
10277;SDS011;5184;51.376;7.148;2023-12-14T00:56:43;33.17;;;16.60;;
10277;SDS011;5184;51.376;7.148;2023-12-14T00:59:10;31.17;;;16.40;;
10277;SDS011;5184;51.376;7.148;2023-12-14T01:01:37;32.67;;;16.33;;
10277;SDS011;5184;51.376;7.148;2023-12-14T01:04:04;33.10;;;16.40;;
10277;SDS011;5184;51.376;7.148;2023-12-14T01:06:30;32.77;;;17.47;;
10277;SDS011;5184;51.376;7.148;2023-12-14T01:08:58;35.63;;;16.90;;
10277;SDS011;5184;51.376;7.148;2023-12-14T01:11:25;33.03;;;16.50;;
10277;SDS011;5184;51.376;7.148;2023-12-14T01:13:52;39.43;;;17.27;;
10277;SDS011;5184;51.376;7.148;2023-12-14T01:16:19;31.07;;;15.47;;
10277;SDS011;5184;51.376;7.148;2023-12-14T01:18:45;31.70;;;14.97;;
10277;SDS011;5184;51.376;7.148;2023-12-14T01:21:12;28.80;;;15.33;;
10277;SDS011;5184;51.376;7.148;2023-12-14T01:23:39;27.00;;;15.13;;
10277;SDS011;5184;51.376;7.148;2023-12-14T01:26:07;29.47;;;14.87;;
10277;SDS011;5184;51.376;7.148;2023-12-14T01:28:33;26.23;;;14.20;;
10277;SDS011;5184;51.376;7.148;2023-12-14T01:31:00;26.30;;;14.07;;
10277;SDS011;5184;51.376;7.148;2023-12-14T01:33:27;23.83;;;12.57;;
10277;SDS011;5184;51.376;7.148;2023-12-14T01:35:53;26.10;;;12.20;;
10277;SDS011;5184;51.376;7.148;2023-12-14T01:38:20;25.83;;;13.80;;
10277;SDS011;5184;51.376;7.148;2023-12-14T01:40:46;22.83;;;13.17;;
10277;SDS011;5184;51.376;7.148;2023-12-14T01:43:14;25.23;;;13.77;;
10277;SDS011;5184;51.376;7.148;2023-12-14T01:45:41;25.83;;;15.03;;
10277;SDS011;5184;51.376;7.148;2023-12-14T01:48:08;27.40;;;13.27;;
10277;SDS011;5184;51.376;7.148;2023-12-14T01:50:34;22.23;;;12.47;;
10277;SDS011;5184;51.376;7.148;2023-12-14T01:53:01;24.33;;;12.83;;
10277;SDS011;5184;51.376;7.148;2023-12-14T01:55:28;19.47;;;11.80;;
10277;SDS011;5184;51.376;7.148;2023-12-14T01:57:55;17.07;;;10.63;;
10277;SDS011;5184;51.376;7.148;2023-12-14T02:00:26;19.60;;;10.97;;
10277;SDS011;5184;51.376;7.148;2023-12-14T02:02:51;19.63;;;10.93;;
10277;SDS011;5184;51.376;7.148;2023-12-14T02:05:17;17.63;;;10.80;;
10277;SDS011;5184;51.376;7.148;2023-12-14T02:07:44;17.13;;;11.20;;
10277;SDS011;5184;51.376;7.148;2023-12-14T02:10:11;16.43;;;10.60;;
10277;SDS011;5184;51.376;7.148;2023-12-14T02:12:37;15.30;;;9.43;;
10277;SDS011;5184;51.376;7.148;2023-12-14T02:15:05;16.53;;;9.83;;
10277;SDS011;5184;51.376;7.148;2023-12-14T02:17:33;13.70;;;9.07;;
10277;SDS011;5184;51.376;7.148;2023-12-14T02:19:59;14.60;;;8.73;;
10277;SDS011;5184;51.376;7.148;2023-12-14T02:22:26;12.57;;;8.60;;
10277;SDS011;5184;51.376;7.148;2023-12-14T02:24:53;13.27;;;8.30;;
10277;SDS011;5184;51.376;7.148;2023-12-14T02:27:20;12.97;;;8.97;;
10277;SDS011;5184;51.376;7.148;2023-12-14T02:29:47;12.63;;;8.20;;
10277;SDS011;5184;51.376;7.148;2023-12-14T02:32:15;14.37;;;9.10;;
10277;SDS011;5184;51.376;7.148;2023-12-14T02:34:42;12.87;;;8.50;;
10277;SDS011;5184;51.376;7.148;2023-12-14T02:37:09;14.70;;;8.83;;
10277;SDS011;5184;51.376;7.148;2023-12-14T02:39:35;14.53;;;8.97;;
10277;SDS011;5184;51.376;7.148;2023-12-14T02:42:02;13.47;;;8.40;;
10277;SDS011;5184;51.376;7.148;2023-12-14T02:44:29;12.57;;;8.60;;
10277;SDS011;5184;51.376;7.148;2023-12-14T02:46:57;13.77;;;8.63;;
10277;SDS011;5184;51.376;7.148;2023-12-14T02:49:24;11.73;;;8.30;;
10277;SDS011;5184;51.376;7.148;2023-12-14T02:51:51;12.60;;;8.00;;
10277;SDS011;5184;51.376;7.148;2023-12-14T02:54:18;14.30;;;8.73;;
10277;SDS011;5184;51.376;7.148;2023-12-14T02:56:45;15.03;;;9.13;;
10277;SDS011;5184;51.376;7.148;2023-12-14T02:59:12;14.93;;;10.03;;
10277;SDS011;5184;51.376;7.148;2023-12-14T03:01:38;16.23;;;9.67;;
10277;SDS011;5184;51.376;7.148;2023-12-14T03:04:06;17.07;;;10.40;;
10277;SDS011;5184;51.376;7.148;2023-12-14T03:06:32;21.10;;;11.27;;
10277;SDS011;5184;51.376;7.148;2023-12-14T03:08:58;18.33;;;11.70;;
10277;SDS011;5184;51.376;7.148;2023-12-14T03:11:26;20.13;;;12.53;;
10277;SDS011;5184;51.376;7.148;2023-12-14T03:13:53;19.33;;;12.33;;
10277;SDS011;5184;51.376;7.148;2023-12-14T03:16:20;24.37;;;13.93;;
10277;SDS011;5184;51.376;7.148;2023-12-14T03:18:46;22.03;;;13.50;;
10277;SDS011;5184;51.376;7.148;2023-12-14T03:23:52;21.03;;;12.10;;
10277;SDS011;5184;51.376;7.148;2023-12-14T03:26:18;23.10;;;11.87;;
10277;SDS011;5184;51.376;7.148;2023-12-14T03:28:45;19.33;;;12.20;;
10277;SDS011;5184;51.376;7.148;2023-12-14T03:31:12;23.37;;;13.50;;
10277;SDS011;5184;51.376;7.148;2023-12-14T03:33:38;22.10;;;12.93;;
10277;SDS011;5184;51.376;7.148;2023-12-14T03:36:05;21.33;;;12.17;;
10277;SDS011;5184;51.376;7.148;2023-12-14T03:38:31;23.13;;;13.03;;
10277;SDS011;5184;51.376;7.148;2023-12-14T03:40:59;25.97;;;13.70;;
10277;SDS011;5184;51.376;7.148;2023-12-14T03:43:26;24.33;;;14.07;;
10277;SDS011;5184;51.376;7.148;2023-12-14T03:45:53;25.53;;;14.03;;
10277;SDS011;5184;51.376;7.148;2023-12-14T03:48:19;27.83;;;14.80;;
10277;SDS011;5184;51.376;7.148;2023-12-14T03:50:46;25.03;;;14.73;;
10277;SDS011;5184;51.376;7.148;2023-12-14T03:53:12;25.70;;;14.27;;
10277;SDS011;5184;51.376;7.148;2023-12-14T03:55:39;22.63;;;12.80;;
10277;SDS011;5184;51.376;7.148;2023-12-14T03:58:06;24.77;;;13.63;;
10277;SDS011;5184;51.376;7.148;2023-12-14T04:00:33;25.33;;;13.87;;
10277;SDS011;5184;51.376;7.148;2023-12-14T04:03:00;26.07;;;13.87;;
10277;SDS011;5184;51.376;7.148;2023-12-14T04:05:27;26.20;;;13.60;;
10277;SDS011;5184;51.376;7.148;2023-12-14T04:07:55;23.77;;;14.17;;
10277;SDS011;5184;51.376;7.148;2023-12-14T04:10:21;27.37;;;15.43;;
10277;SDS011;5184;51.376;7.148;2023-12-14T04:12:48;29.73;;;15.47;;
10277;SDS011;5184;51.376;7.148;2023-12-14T04:15:14;26.30;;;14.67;;
10277;SDS011;5184;51.376;7.148;2023-12-14T04:17:41;25.43;;;14.23;;
10277;SDS011;5184;51.376;7.148;2023-12-14T04:20:08;23.27;;;13.67;;
10277;SDS011;5184;51.376;7.148;2023-12-14T04:22:35;20.67;;;11.87;;
10277;SDS011;5184;51.376;7.148;2023-12-14T04:25:02;19.40;;;11.70;;
10277;SDS011;5184;51.376;7.148;2023-12-14T04:27:28;16.43;;;9.97;;
10277;SDS011;5184;51.376;7.148;2023-12-14T04:29:55;15.10;;;9.17;;
10277;SDS011;5184;51.376;7.148;2023-12-14T04:32:22;18.10;;;9.83;;
10277;SDS011;5184;51.376;7.148;2023-12-14T04:34:49;16.00;;;9.60;;
10277;SDS011;5184;51.376;7.148;2023-12-14T04:37:15;16.93;;;10.00;;
10277;SDS011;5184;51.376;7.148;2023-12-14T04:39:42;15.17;;;8.93;;
10277;SDS011;5184;51.376;7.148;2023-12-14T04:42:09;12.60;;;8.17;;
10277;SDS011;5184;51.376;7.148;2023-12-14T04:44:36;15.27;;;8.63;;
10277;SDS011;5184;51.376;7.148;2023-12-14T04:47:03;16.20;;;7.83;;
10277;SDS011;5184;51.376;7.148;2023-12-14T04:49:30;13.60;;;8.37;;
10277;SDS011;5184;51.376;7.148;2023-12-14T04:51:56;12.03;;;7.77;;
10277;SDS011;5184;51.376;7.148;2023-12-14T04:54:23;13.40;;;8.17;;
10277;SDS011;5184;51.376;7.148;2023-12-14T04:56:50;12.20;;;8.27;;
10277;SDS011;5184;51.376;7.148;2023-12-14T04:59:18;13.73;;;8.37;;
10277;SDS011;5184;51.376;7.148;2023-12-14T05:01:44;14.53;;;8.80;;
10277;SDS011;5184;51.376;7.148;2023-12-14T05:04:11;15.60;;;8.93;;
10277;SDS011;5184;51.376;7.148;2023-12-14T05:06:38;14.47;;;8.60;;
10277;SDS011;5184;51.376;7.148;2023-12-14T05:09:04;15.60;;;8.40;;
10277;SDS011;5184;51.376;7.148;2023-12-14T05:11:31;15.60;;;9.37;;
10277;SDS011;5184;51.376;7.148;2023-12-14T05:13:58;15.13;;;9.40;;
10277;SDS011;5184;51.376;7.148;2023-12-14T05:16:25;15.57;;;8.87;;
10277;SDS011;5184;51.376;7.148;2023-12-14T05:18:53;20.27;;;10.00;;
10277;SDS011;5184;51.376;7.148;2023-12-14T05:21:19;17.57;;;9.30;;
10277;SDS011;5184;51.376;7.148;2023-12-14T05:23:46;17.20;;;10.00;;
10277;SDS011;5184;51.376;7.148;2023-12-14T05:26:13;15.77;;;9.43;;
10277;SDS011;5184;51.376;7.148;2023-12-14T05:28:39;15.53;;;9.57;;
10277;SDS011;5184;51.376;7.148;2023-12-14T05:31:06;14.17;;;9.23;;
10277;SDS011;5184;51.376;7.148;2023-12-14T05:33:36;18.37;;;10.27;;
10277;SDS011;5184;51.376;7.148;2023-12-14T05:36:03;16.43;;;8.97;;
10277;SDS011;5184;51.376;7.148;2023-12-14T05:38:31;15.53;;;9.67;;
10277;SDS011;5184;51.376;7.148;2023-12-14T05:40:57;12.87;;;8.40;;
10277;SDS011;5184;51.376;7.148;2023-12-14T05:43:23;15.37;;;8.90;;
10277;SDS011;5184;51.376;7.148;2023-12-14T05:45:50;15.60;;;9.33;;
10277;SDS011;5184;51.376;7.148;2023-12-14T05:48:17;16.37;;;8.93;;
10277;SDS011;5184;51.376;7.148;2023-12-14T05:50:43;16.03;;;9.07;;
10277;SDS011;5184;51.376;7.148;2023-12-14T05:53:10;16.67;;;9.47;;
10277;SDS011;5184;51.376;7.148;2023-12-14T05:55:37;16.43;;;9.60;;
10277;SDS011;5184;51.376;7.148;2023-12-14T05:58:04;17.27;;;9.97;;
10277;SDS011;5184;51.376;7.148;2023-12-14T06:00:32;18.33;;;10.17;;
10277;SDS011;5184;51.376;7.148;2023-12-14T06:02:58;16.80;;;10.20;;
10277;SDS011;5184;51.376;7.148;2023-12-14T06:05:25;20.17;;;10.87;;
10277;SDS011;5184;51.376;7.148;2023-12-14T06:07:52;20.13;;;10.20;;
10277;SDS011;5184;51.376;7.148;2023-12-14T06:10:19;14.90;;;9.30;;
10277;SDS011;5184;51.376;7.148;2023-12-14T06:12:46;20.23;;;11.23;;
10277;SDS011;5184;51.376;7.148;2023-12-14T06:15:12;18.37;;;10.90;;
10277;SDS011;5184;51.376;7.148;2023-12-14T06:17:39;18.20;;;10.17;;
10277;SDS011;5184;51.376;7.148;2023-12-14T06:20:06;20.07;;;10.93;;
10277;SDS011;5184;51.376;7.148;2023-12-14T06:22:34;18.37;;;10.70;;
10277;SDS011;5184;51.376;7.148;2023-12-14T06:25:03;20.60;;;11.10;;
10277;SDS011;5184;51.376;7.148;2023-12-14T06:27:29;20.23;;;10.93;;
10277;SDS011;5184;51.376;7.148;2023-12-14T06:29:56;21.63;;;11.97;;
10277;SDS011;5184;51.376;7.148;2023-12-14T06:32:23;19.80;;;11.23;;
10277;SDS011;5184;51.376;7.148;2023-12-14T06:34:49;17.43;;;10.33;;
10277;SDS011;5184;51.376;7.148;2023-12-14T06:37:16;19.97;;;11.00;;
10277;SDS011;5184;51.376;7.148;2023-12-14T06:39:42;16.23;;;9.73;;
10277;SDS011;5184;51.376;7.148;2023-12-14T06:42:10;17.90;;;9.77;;
10277;SDS011;5184;51.376;7.148;2023-12-14T06:44:37;17.30;;;10.30;;
10277;SDS011;5184;51.376;7.148;2023-12-14T06:47:04;18.97;;;10.73;;
10277;SDS011;5184;51.376;7.148;2023-12-14T06:49:32;17.90;;;10.47;;
10277;SDS011;5184;51.376;7.148;2023-12-14T06:51:58;17.07;;;10.43;;
10277;SDS011;5184;51.376;7.148;2023-12-14T06:54:25;22.10;;;11.80;;
10277;SDS011;5184;51.376;7.148;2023-12-14T06:56:52;19.50;;;11.73;;
10277;SDS011;5184;51.376;7.148;2023-12-14T06:59:18;21.10;;;12.87;;
10277;SDS011;5184;51.376;7.148;2023-12-14T07:01:45;22.37;;;12.50;;
10277;SDS011;5184;51.376;7.148;2023-12-14T07:04:11;19.33;;;11.37;;
10277;SDS011;5184;51.376;7.148;2023-12-14T07:06:38;22.03;;;12.50;;
10277;SDS011;5184;51.376;7.148;2023-12-14T07:09:05;23.43;;;13.33;;
10277;SDS011;5184;51.376;7.148;2023-12-14T07:11:32;26.17;;;13.27;;
10277;SDS011;5184;51.376;7.148;2023-12-14T07:13:59;24.20;;;14.40;;
10277;SDS011;5184;51.376;7.148;2023-12-14T07:16:27;21.35;;;13.18;;
10277;SDS011;5184;51.376;7.148;2023-12-14T07:18:54;22.90;;;12.53;;
10277;SDS011;5184;51.376;7.148;2023-12-14T07:21:21;21.47;;;12.70;;
10277;SDS011;5184;51.376;7.148;2023-12-14T07:23:48;23.30;;;13.37;;
10277;SDS011;5184;51.376;7.148;2023-12-14T07:26:14;25.10;;;13.07;;
10277;SDS011;5184;51.376;7.148;2023-12-14T07:28:41;25.60;;;14.23;;
10277;SDS011;5184;51.376;7.148;2023-12-14T07:31:08;24.57;;;13.80;;
10277;SDS011;5184;51.376;7.148;2023-12-14T07:33:35;24.03;;;13.40;;
10277;SDS011;5184;51.376;7.148;2023-12-14T07:36:01;26.17;;;14.50;;
10277;SDS011;5184;51.376;7.148;2023-12-14T07:38:28;24.93;;;13.77;;
10277;SDS011;5184;51.376;7.148;2023-12-14T07:40:55;26.40;;;14.70;;
10277;SDS011;5184;51.376;7.148;2023-12-14T07:43:21;22.60;;;13.77;;
10277;SDS011;5184;51.376;7.148;2023-12-14T07:45:49;30.43;;;15.17;;
10277;SDS011;5184;51.376;7.148;2023-12-14T07:48:16;29.90;;;14.37;;
10277;SDS011;5184;51.376;7.148;2023-12-14T07:50:43;26.87;;;14.40;;
10277;SDS011;5184;51.376;7.148;2023-12-14T07:53:09;25.70;;;13.80;;
10277;SDS011;5184;51.376;7.148;2023-12-14T07:55:36;25.37;;;13.73;;
10277;SDS011;5184;51.376;7.148;2023-12-14T07:58:03;27.83;;;13.70;;
10277;SDS011;5184;51.376;7.148;2023-12-14T08:00:30;26.03;;;13.83;;
10277;SDS011;5184;51.376;7.148;2023-12-14T08:02:58;26.43;;;13.97;;
10277;SDS011;5184;51.376;7.148;2023-12-14T08:05:24;27.03;;;13.80;;
10277;SDS011;5184;51.376;7.148;2023-12-14T08:07:51;22.97;;;12.47;;
10277;SDS011;5184;51.376;7.148;2023-12-14T08:10:18;23.67;;;12.90;;
10277;SDS011;5184;51.376;7.148;2023-12-14T08:12:44;23.10;;;12.63;;
10277;SDS011;5184;51.376;7.148;2023-12-14T08:15:11;24.30;;;13.27;;
10277;SDS011;5184;51.376;7.148;2023-12-14T08:17:37;25.97;;;13.03;;
10277;SDS011;5184;51.376;7.148;2023-12-14T08:20:05;26.83;;;14.07;;
10277;SDS011;5184;51.376;7.148;2023-12-14T08:22:32;25.23;;;14.20;;
10277;SDS011;5184;51.376;7.148;2023-12-14T08:24:59;25.60;;;13.53;;
10277;SDS011;5184;51.376;7.148;2023-12-14T08:27:26;26.40;;;13.90;;
10277;SDS011;5184;51.376;7.148;2023-12-14T08:29:53;26.87;;;14.67;;
10277;SDS011;5184;51.376;7.148;2023-12-14T08:32:20;30.37;;;15.03;;
10277;SDS011;5184;51.376;7.148;2023-12-14T08:34:47;28.90;;;16.60;;
10277;SDS011;5184;51.376;7.148;2023-12-14T08:37:14;32.77;;;17.47;;
10277;SDS011;5184;51.376;7.148;2023-12-14T08:39:41;29.50;;;15.97;;
10277;SDS011;5184;51.376;7.148;2023-12-14T08:42:07;31.33;;;16.43;;
10277;SDS011;5184;51.376;7.148;2023-12-14T08:44:34;31.77;;;16.57;;
10277;SDS011;5184;51.376;7.148;2023-12-14T08:47:00;33.40;;;16.50;;
10277;SDS011;5184;51.376;7.148;2023-12-14T08:49:28;27.60;;;15.90;;
10277;SDS011;5184;51.376;7.148;2023-12-14T08:51:54;26.03;;;15.47;;
10277;SDS011;5184;51.376;7.148;2023-12-14T08:54:21;26.73;;;15.37;;
10277;SDS011;5184;51.376;7.148;2023-12-14T08:56:48;26.23;;;16.20;;
10277;SDS011;5184;51.376;7.148;2023-12-14T08:59:14;28.57;;;15.77;;
10277;SDS011;5184;51.376;7.148;2023-12-14T09:01:41;29.87;;;16.20;;
10277;SDS011;5184;51.376;7.148;2023-12-14T09:04:08;30.20;;;16.57;;
10277;SDS011;5184;51.376;7.148;2023-12-14T09:06:35;28.80;;;16.53;;
10277;SDS011;5184;51.376;7.148;2023-12-14T09:09:01;26.97;;;14.47;;
10277;SDS011;5184;51.376;7.148;2023-12-14T09:11:28;26.40;;;14.57;;
10277;SDS011;5184;51.376;7.148;2023-12-14T09:13:55;24.20;;;15.63;;
10277;SDS011;5184;51.376;7.148;2023-12-14T09:16:23;27.87;;;15.13;;
10277;SDS011;5184;51.376;7.148;2023-12-14T09:18:49;25.47;;;14.93;;
10277;SDS011;5184;51.376;7.148;2023-12-14T09:21:16;27.20;;;15.10;;
10277;SDS011;5184;51.376;7.148;2023-12-14T09:23:42;29.07;;;15.17;;
10277;SDS011;5184;51.376;7.148;2023-12-14T09:26:10;27.70;;;15.37;;
10277;SDS011;5184;51.376;7.148;2023-12-14T09:28:37;25.47;;;15.00;;
10277;SDS011;5184;51.376;7.148;2023-12-14T09:31:05;27.13;;;15.33;;
10277;SDS011;5184;51.376;7.148;2023-12-14T09:33:31;23.10;;;14.20;;
10277;SDS011;5184;51.376;7.148;2023-12-14T09:35:58;26.77;;;14.63;;
10277;SDS011;5184;51.376;7.148;2023-12-14T09:38:24;28.47;;;16.53;;
10277;SDS011;5184;51.376;7.148;2023-12-14T09:40:52;34.87;;;18.47;;
10277;SDS011;5184;51.376;7.148;2023-12-14T09:43:19;32.53;;;17.57;;
10277;SDS011;5184;51.376;7.148;2023-12-14T09:45:46;37.63;;;19.40;;
10277;SDS011;5184;51.376;7.148;2023-12-14T09:48:13;39.80;;;20.73;;
10277;SDS011;5184;51.376;7.148;2023-12-14T09:50:40;39.23;;;20.13;;
10277;SDS011;5184;51.376;7.148;2023-12-14T09:53:06;42.60;;;21.83;;
10277;SDS011;5184;51.376;7.148;2023-12-14T09:55:34;43.03;;;21.07;;
10277;SDS011;5184;51.376;7.148;2023-12-14T09:58:00;40.57;;;20.83;;
10277;SDS011;5184;51.376;7.148;2023-12-14T10:00:34;46.03;;;22.10;;
10277;SDS011;5184;51.376;7.148;2023-12-14T10:03:17;45.37;;;23.03;;
10277;SDS011;5184;51.376;7.148;2023-12-14T10:05:38;41.70;;;21.27;;
10277;SDS011;5184;51.376;7.148;2023-12-14T10:08:05;45.33;;;21.97;;
10277;SDS011;5184;51.376;7.148;2023-12-14T10:10:31;43.63;;;20.53;;
10277;SDS011;5184;51.376;7.148;2023-12-14T10:12:58;42.53;;;21.97;;
10277;SDS011;5184;51.376;7.148;2023-12-14T10:15:26;39.53;;;21.47;;
10277;SDS011;5184;51.376;7.148;2023-12-14T10:17:53;34.53;;;17.77;;
10277;SDS011;5184;51.376;7.148;2023-12-14T10:20:20;31.87;;;17.53;;
10277;SDS011;5184;51.376;7.148;2023-12-14T10:22:49;38.07;;;18.63;;
10277;SDS011;5184;51.376;7.148;2023-12-14T10:25:17;32.10;;;18.30;;
10277;SDS011;5184;51.376;7.148;2023-12-14T10:27:45;35.97;;;19.63;;
10277;SDS011;5184;51.376;7.148;2023-12-14T10:30:10;36.40;;;18.33;;
10277;SDS011;5184;51.376;7.148;2023-12-14T10:32:38;31.30;;;16.93;;
10277;SDS011;5184;51.376;7.148;2023-12-14T10:35:05;29.17;;;16.40;;
10277;SDS011;5184;51.376;7.148;2023-12-14T10:37:31;28.13;;;15.03;;
10277;SDS011;5184;51.376;7.148;2023-12-14T10:39:58;26.67;;;14.23;;
10277;SDS011;5184;51.376;7.148;2023-12-14T10:42:25;28.27;;;15.63;;
10277;SDS011;5184;51.376;7.148;2023-12-14T10:44:53;25.40;;;14.60;;
10277;SDS011;5184;51.376;7.148;2023-12-14T10:47:20;26.23;;;14.33;;
10277;SDS011;5184;51.376;7.148;2023-12-14T10:49:47;25.33;;;14.03;;
10277;SDS011;5184;51.376;7.148;2023-12-14T10:52:13;25.27;;;15.20;;
10277;SDS011;5184;51.376;7.148;2023-12-14T10:54:40;27.77;;;15.10;;
10277;SDS011;5184;51.376;7.148;2023-12-14T10:57:06;25.10;;;14.63;;
10277;SDS011;5184;51.376;7.148;2023-12-14T10:59:33;25.70;;;14.97;;
10277;SDS011;5184;51.376;7.148;2023-12-14T11:02:04;27.60;;;15.70;;
10277;SDS011;5184;51.376;7.148;2023-12-14T11:04:27;25.93;;;14.67;;
10277;SDS011;5184;51.376;7.148;2023-12-14T11:06:54;25.73;;;14.50;;
10277;SDS011;5184;51.376;7.148;2023-12-14T11:09:21;25.53;;;14.30;;
10277;SDS011;5184;51.376;7.148;2023-12-14T11:11:55;23.90;;;14.73;;
10277;SDS011;5184;51.376;7.148;2023-12-14T11:14:22;25.60;;;14.73;;
10277;SDS011;5184;51.376;7.148;2023-12-14T11:16:48;25.23;;;14.50;;
10277;SDS011;5184;51.376;7.148;2023-12-14T11:19:25;25.50;;;15.27;;
10277;SDS011;5184;51.376;7.148;2023-12-14T11:22:09;23.43;;;14.53;;
10277;SDS011;5184;51.376;7.148;2023-12-14T11:24:36;22.43;;;14.50;;
10277;SDS011;5184;51.376;7.148;2023-12-14T11:27:04;24.77;;;15.10;;
10277;SDS011;5184;51.376;7.148;2023-12-14T11:29:32;22.87;;;14.60;;
10277;SDS011;5184;51.376;7.148;2023-12-14T11:31:59;24.33;;;14.33;;
10277;SDS011;5184;51.376;7.148;2023-12-14T11:34:27;23.83;;;14.30;;
10277;SDS011;5184;51.376;7.148;2023-12-14T11:36:54;24.37;;;15.13;;
10277;SDS011;5184;51.376;7.148;2023-12-14T11:39:20;24.00;;;14.07;;
10277;SDS011;5184;51.376;7.148;2023-12-14T11:44:25;22.23;;;14.27;;
10277;SDS011;5184;51.376;7.148;2023-12-14T11:46:51;21.40;;;13.93;;
10277;SDS011;5184;51.376;7.148;2023-12-14T11:49:18;24.13;;;15.47;;
10277;SDS011;5184;51.376;7.148;2023-12-14T11:51:46;24.77;;;14.63;;
10277;SDS011;5184;51.376;7.148;2023-12-14T11:54:13;22.37;;;14.77;;
10277;SDS011;5184;51.376;7.148;2023-12-14T11:56:45;22.63;;;14.37;;
10277;SDS011;5184;51.376;7.148;2023-12-14T11:59:10;21.00;;;13.40;;
10277;SDS011;5184;51.376;7.148;2023-12-14T12:01:34;22.03;;;13.87;;
10277;SDS011;5184;51.376;7.148;2023-12-14T12:04:08;21.07;;;13.43;;
10277;SDS011;5184;51.376;7.148;2023-12-14T12:06:27;22.47;;;13.80;;
10277;SDS011;5184;51.376;7.148;2023-12-14T12:08:54;24.97;;;13.83;;
10277;SDS011;5184;51.376;7.148;2023-12-14T12:11:22;18.90;;;12.70;;
10277;SDS011;5184;51.376;7.148;2023-12-14T12:13:51;21.37;;;13.00;;
10277;SDS011;5184;51.376;7.148;2023-12-14T12:16:17;21.70;;;13.20;;
10277;SDS011;5184;51.376;7.148;2023-12-14T12:18:43;19.30;;;11.90;;
10277;SDS011;5184;51.376;7.148;2023-12-14T12:21:11;19.47;;;12.10;;
10277;SDS011;5184;51.376;7.148;2023-12-14T12:23:37;18.10;;;11.73;;
10277;SDS011;5184;51.376;7.148;2023-12-14T12:26:04;18.30;;;11.47;;
10277;SDS011;5184;51.376;7.148;2023-12-14T12:28:31;17.50;;;10.97;;
10277;SDS011;5184;51.376;7.148;2023-12-14T12:30:57;19.13;;;12.00;;
10277;SDS011;5184;51.376;7.148;2023-12-14T12:33:24;17.07;;;11.70;;
10277;SDS011;5184;51.376;7.148;2023-12-14T12:35:50;15.70;;;10.67;;
10277;SDS011;5184;51.376;7.148;2023-12-14T12:38:18;17.67;;;11.83;;
10277;SDS011;5184;51.376;7.148;2023-12-14T12:40:45;19.27;;;12.07;;
10277;SDS011;5184;51.376;7.148;2023-12-14T12:43:12;16.13;;;11.13;;
10277;SDS011;5184;51.376;7.148;2023-12-14T12:45:38;19.33;;;10.53;;
10277;SDS011;5184;51.376;7.148;2023-12-14T12:48:06;15.17;;;10.97;;
10277;SDS011;5184;51.376;7.148;2023-12-14T12:50:33;14.80;;;9.80;;
10277;SDS011;5184;51.376;7.148;2023-12-14T12:53:00;15.87;;;9.90;;
10277;SDS011;5184;51.376;7.148;2023-12-14T12:55:28;14.73;;;9.87;;
10277;SDS011;5184;51.376;7.148;2023-12-14T12:57:54;15.63;;;10.63;;
10277;SDS011;5184;51.376;7.148;2023-12-14T13:00:21;14.97;;;9.60;;
10277;SDS011;5184;51.376;7.148;2023-12-14T13:02:48;13.20;;;9.37;;
10277;SDS011;5184;51.376;7.148;2023-12-14T13:05:14;13.27;;;8.63;;
10277;SDS011;5184;51.376;7.148;2023-12-14T13:07:43;14.63;;;9.07;;
10277;SDS011;5184;51.376;7.148;2023-12-14T13:10:08;12.00;;;8.50;;
10277;SDS011;5184;51.376;7.148;2023-12-14T13:12:36;14.03;;;9.00;;
10277;SDS011;5184;51.376;7.148;2023-12-14T13:15:03;17.00;;;9.73;;
10277;SDS011;5184;51.376;7.148;2023-12-14T13:17:31;14.87;;;9.13;;
10277;SDS011;5184;51.376;7.148;2023-12-14T13:19:57;12.73;;;8.40;;
10277;SDS011;5184;51.376;7.148;2023-12-14T13:22:24;14.07;;;8.80;;
10277;SDS011;5184;51.376;7.148;2023-12-14T13:24:51;14.27;;;9.20;;
10277;SDS011;5184;51.376;7.148;2023-12-14T13:27:17;13.77;;;9.00;;
10277;SDS011;5184;51.376;7.148;2023-12-14T13:29:44;13.80;;;8.83;;
10277;SDS011;5184;51.376;7.148;2023-12-14T13:32:11;12.50;;;9.07;;
10277;SDS011;5184;51.376;7.148;2023-12-14T13:34:38;14.27;;;8.70;;
10277;SDS011;5184;51.376;7.148;2023-12-14T13:37:06;15.03;;;9.80;;
10277;SDS011;5184;51.376;7.148;2023-12-14T13:39:33;12.10;;;8.10;;
10277;SDS011;5184;51.376;7.148;2023-12-14T13:42:01;13.80;;;8.67;;
10277;SDS011;5184;51.376;7.148;2023-12-14T13:44:27;13.13;;;8.70;;
10277;SDS011;5184;51.376;7.148;2023-12-14T13:46:54;13.80;;;9.10;;
10277;SDS011;5184;51.376;7.148;2023-12-14T13:49:20;14.87;;;8.83;;
10277;SDS011;5184;51.376;7.148;2023-12-14T13:51:47;13.07;;;8.67;;
10277;SDS011;5184;51.376;7.148;2023-12-14T13:54:13;13.93;;;9.13;;
10277;SDS011;5184;51.376;7.148;2023-12-14T13:56:41;15.00;;;8.50;;
10277;SDS011;5184;51.376;7.148;2023-12-14T13:59:08;13.27;;;8.80;;
10277;SDS011;5184;51.376;7.148;2023-12-14T14:01:36;13.23;;;8.17;;
10277;SDS011;5184;51.376;7.148;2023-12-14T14:04:02;13.70;;;8.37;;
10277;SDS011;5184;51.376;7.148;2023-12-14T14:06:29;12.77;;;8.20;;
10277;SDS011;5184;51.376;7.148;2023-12-14T14:08:55;12.73;;;7.47;;
10277;SDS011;5184;51.376;7.148;2023-12-14T14:11:22;11.97;;;7.47;;
10277;SDS011;5184;51.376;7.148;2023-12-14T14:13:49;13.97;;;8.33;;
10277;SDS011;5184;51.376;7.148;2023-12-14T14:16:17;12.27;;;8.10;;
10277;SDS011;5184;51.376;7.148;2023-12-14T14:18:43;12.93;;;7.90;;
10277;SDS011;5184;51.376;7.148;2023-12-14T14:21:10;13.03;;;7.57;;
10277;SDS011;5184;51.376;7.148;2023-12-14T14:23:37;13.17;;;8.33;;
10277;SDS011;5184;51.376;7.148;2023-12-14T14:26:04;14.77;;;7.70;;
10277;SDS011;5184;51.376;7.148;2023-12-14T14:28:31;12.47;;;8.37;;
10277;SDS011;5184;51.376;7.148;2023-12-14T14:30:59;13.83;;;8.23;;
10277;SDS011;5184;51.376;7.148;2023-12-14T14:33:26;13.77;;;8.77;;
10277;SDS011;5184;51.376;7.148;2023-12-14T14:35:53;13.17;;;8.50;;
10277;SDS011;5184;51.376;7.148;2023-12-14T14:38:19;14.63;;;8.57;;
10277;SDS011;5184;51.376;7.148;2023-12-14T14:40:46;15.37;;;8.40;;